Latest Coastal Weather Observations for Truscott

IDD60701

Issued at 7:11 am CST Thursday 22 February 2024 (issued every 10 minutes, with the page automatically refreshed every 10 minutes)

About coastal observations | Map of coastal stations | Coastal observations for NT | Marine services | Other Formats
Station Details ID: 001020 Name: TRUSCOTT Lat: -14.09 Lon: 126.39 Height: 51.0 m
Data from the previous 72 hours. | See also: Recent months at Truscott
Date/Time
CST
Wind Sea
Height
m
Swell Vis
km
Cloud Weather Temp
°C
Press
MSL
hPa
Rain since
9am
mm
Dir  Spd
kts
Gust
kts
Height
m
Period
s
Dir
22/07:00am NNE 5 8 - - - - 10 Partly cloudy - 27.6 1009.4 13.8
22/06:50am N 5 7 - - - - 10 Partly cloudy - 27.6 1009.4 13.8
22/06:46am NNE 4 7 - - - - 10 Partly cloudy - 27.5 1009.4 13.8
22/06:30am NNE 3 5 - - - - 10 Partly cloudy - 27.2 1009.1 13.8
22/06:10am ENE 2 4 - - - - 10 Partly cloudy - 26.7 1009.0 13.8
22/06:00am CALM 0 0 - - - - 6 Partly cloudy - 26.8 1008.8 13.8
22/05:30am NE 4 5 - - - - 10 Partly cloudy - 26.7 1008.6 13.2
22/05:00am NE 3 4 - - - - 10 Partly cloudy - 26.2 1008.4 13.2
22/04:57am NE 3 5 - - - - 10 Partly cloudy - 26.2 1008.4 13.2
22/04:30am SSW 5 6 - - - - 10 Cloudy - 25.9 1008.5 13.2
22/04:26am S 4 6 - - - - 10 Partly cloudy - 25.8 1008.5 13.2
22/04:00am CALM 0 0 - - - - 10 Partly cloudy - 25.7 1008.1 13.2
22/03:30am CALM 0 0 - - - - 10 Partly cloudy - 26.0 1008.0 13.2
22/03:29am CALM 0 0 - - - - 10 Partly cloudy - 26.1 1008.1 13.2
22/03:00am WSW 4 6 - - - - 10 Partly cloudy - 26.2 1008.3 13.2
22/02:55am W 5 9 - - - - 10 Partly cloudy - 26.3 1008.4 13.2
22/02:30am NE 3 4 - - - - 10 Partly cloudy - 26.2 1008.2 13.2
22/02:00am N 3 4 - - - - 10 Partly cloudy - 26.3 1008.8 13.2
22/01:30am NNE 5 6 - - - - 10 Mostly clear - 26.5 1009.0 13.2
22/01:00am NNE 5 6 - - - - 10 Partly cloudy - 26.4 1009.1 13.2
22/12:30am N 3 5 - - - - 10 Partly cloudy - 26.3 1009.3 13.2
22/12:00am N 4 5 - - - - 10 - - 25.9 1009.0 13.2
 
Date/Time
CST
Wind Sea
Height
m
Swell Vis
km
Cloud Weather Temp
°C
Press
MSL
hPa
Rain since
9am
mm
Dir  Spd
kts
Gust
kts
Height
m
Period
s
Dir
21/11:30pm NNE 3 4 - - - - 10 Partly cloudy - 25.9 1009.1 13.2
21/11:00pm NNE 2 6 - - - - 10 Partly cloudy - 25.8 1009.2 13.2
21/10:30pm N 4 7 - - - - 10 Cloudy Showers 25.9 1009.1 13.2
21/10:27pm N 5 9 - - - - 10 Partly cloudy - 26.0 1009.1 13.2
21/10:00pm N 5 13 - - - - 10 Partly cloudy - 26.9 1008.8 12.8
21/09:56pm N 5 7 - - - - 10 Partly cloudy - 26.9 1008.7 12.4
21/09:30pm NNE 4 6 - - - - 10 Partly cloudy - 26.8 1008.4 12.4
21/09:00pm N 4 6 - - - - 10 Partly cloudy - 26.7 1007.7 12.4
21/08:30pm N 7 10 - - - - 10 Partly cloudy - 27.0 1007.3 12.4
21/08:07pm NNW 7 11 - - - - 10 Partly cloudy - 27.6 1006.6 12.4
21/08:00pm NNW 7 12 - - - - 10 Partly cloudy - 27.6 1006.5 12.4
21/07:50pm N 7 11 - - - - 10 Partly cloudy - 27.6 1006.6 12.4
21/07:30pm NNW 7 11 - - - - 10 Cloudy Showers 27.3 1006.3 12.4
21/07:00pm NNW 6 9 - - - - 10 Partly cloudy - 26.7 1005.8 12.4
21/06:30pm NNW 9 15 - - - - 10 Partly cloudy - 27.0 1005.7 12.4
21/06:00pm N 4 7 - - - - 10 Partly cloudy - 26.9 1005.3 12.4
21/05:30pm N 5 9 - - - - 10 Partly cloudy - 26.5 1005.2 12.4
21/05:19pm NNW 8 14 - - - - 10 Partly cloudy - 26.5 1005.2 12.4
21/05:00pm NNW 9 14 - - - - 10 Partly cloudy - 27.2 1004.9 12.2
21/04:30pm NNW 6 11 - - - - 10 Cloudy Showers 26.8 1004.9 12.2
21/04:19pm N 5 7 - - - - 10 Partly cloudy - 26.4 1005.0 12.2
21/04:13pm NNE 4 6 - - - - 10 Partly cloudy - 26.5 1004.9 12.2
21/04:03pm NNW 4 6 - - - - 5 Partly cloudy - 26.3 1004.7 12.0
21/04:00pm N 4 8 - - - - 10 Partly cloudy - 26.3 1004.8 11.4
21/03:47pm NNW 6 11 - - - - 7 Partly cloudy - 26.1 1004.8 11.2
21/03:35pm NW 7 11 - - - - 5 Partly cloudy - 26.0 1004.8 10.4
21/03:30pm NW 7 12 - - - - 9 Partly cloudy - 26.1 1004.9 10.0
21/03:00pm N 5 8 - - - - 10 Partly cloudy - 26.8 1004.8 9.6
21/02:30pm N 6 8 - - - - 10 Partly cloudy - 26.4 1005.2 6.6
21/02:00pm N 7 11 - - - - 10 Partly cloudy - 25.5 1005.5 6.6
21/01:30pm N 12 22 - - - - 2 Cloudy Rain 25.8 1005.7 5.2
21/01:26pm N 12 23 - - - - 4 Partly cloudy - 26.4 1005.7 3.8
21/01:00pm NNE 6 9 - - - - 10 Cloudy - 28.9 1005.9 0.6
21/12:30pm NNE 6 9 - - - - 10 Partly cloudy - 28.3 1006.2 0.6
21/12:00pm NNE 6 9 - - - - 10 Partly cloudy - 27.7 1006.6 0.0
21/11:30am NNE 5 8 - - - - 10 Partly cloudy - 27.4 1006.5 0.0
21/11:09am NNE 6 9 - - - - 10 Partly cloudy - 26.4 1006.8 0.0
21/11:00am NNE 6 8 - - - - 10 Partly cloudy - 26.3 1006.8 0.0
21/10:30am N 6 9 - - - - 10 Cloudy - 25.7 1006.7 6.6
21/10:00am N 5 7 - - - - 10 Cloudy - 25.6 1006.6 6.6
21/09:30am NNW 6 9 - - - - 10 Partly cloudy - 25.5 1006.4 6.6
21/09:29am NNW 6 9 - - - - 10 Partly cloudy - 25.6 1006.4 6.6
21/09:00am NNE 4 6 - - - - 10 Partly cloudy - 25.3 1005.4 6.6
21/08:30am N 3 5 - - - - 10 Partly cloudy - 25.3 1005.1 6.6
21/08:00am N 4 6 - - - - 10 Partly cloudy - 25.5 1005.0 6.6
21/07:47am NNW 5 7 - - - - 7 Partly cloudy - 25.6 1004.8 6.6
21/07:30am WNW 7 10 - - - - 10 Cloudy Showers 25.8 1004.5 6.6
21/07:00am W 7 13 - - - - 6 Partly cloudy - 26.1 1003.9 6.6
21/06:31am NNW 7 13 - - - - 10 Partly cloudy - 26.9 1003.4 6.6
21/06:30am NNW 7 13 - - - - 10 Partly cloudy - 26.9 1003.4 6.6
21/06:00am NW 4 5 - - - - 10 Partly cloudy - 26.8 1003.1 6.6
21/05:47am NW 4 6 - - - - 10 Partly cloudy - 26.8 1003.1 6.6
21/05:30am WNW 6 11 - - - - 5 Partly cloudy - 26.9 1003.1 6.6
21/05:29am WNW 6 11 - - - - 5 Partly cloudy - 27.0 1003.1 6.6
21/05:05am WNW 6 9 - - - - 10 Partly cloudy - 27.0 1003.1 6.6
21/05:00am WNW 6 9 - - - - 10 Partly cloudy - 27.0 1003.1 6.6
21/04:37am NW 6 10 - - - - 10 Partly cloudy - 26.5 1002.9 6.6
21/04:30am NW 6 10 - - - - 10 Cloudy Showers 26.5 1003.1 6.6
21/04:12am NW 6 9 - - - - 10 Partly cloudy - 26.6 1003.3 6.6
21/04:00am WNW 5 9 - - - - 10 Partly cloudy - 26.4 1003.4 6.6
21/03:30am NW 6 9 - - - - 10 Partly cloudy - 26.1 1003.3 6.6
21/03:00am WNW 6 9 - - - - 10 Partly cloudy - 25.8 1003.5 6.6
21/02:47am W 7 11 - - - - 10 Partly cloudy - 25.8 1003.6 6.6
21/02:35am W 10 14 - - - - 4 Partly cloudy - 25.4 1003.8 6.6
21/02:30am W 13 22 - - - - 2 Partly cloudy - 25.2 1003.8 6.6
21/02:17am NW 15 27 - - - - 3 Partly cloudy - 26.1 1003.9 6.6
21/02:12am NNW 12 27 - - - - 5 Partly cloudy - 26.5 1004.0 6.6
21/02:11am NNW 11 27 - - - - 6 Partly cloudy - 26.5 1004.0 6.6
21/02:00am NNW 6 9 - - - - 10 Partly cloudy - 26.7 1003.9 6.6
21/01:30am N 4 4 - - - - 10 Cloudy Showers 26.3 1004.7 6.6
21/01:00am NNW 3 4 - - - - 10 Partly cloudy - 26.3 1004.9 6.6
21/12:30am NW 4 6 - - - - 10 Partly cloudy - 26.6 1005.5 6.6
21/12:00am NW 5 8 - - - - 10 Partly cloudy - 26.6 1006.1 6.6
 
Date/Time
CST
Wind Sea
Height
m
Swell Vis
km
Cloud Weather Temp
°C
Press
MSL
hPa
Rain since
9am
mm
Dir  Spd
kts
Gust
kts
Height
m
Period
s
Dir
20/11:30pm WNW 4 7 - - - - 10 Partly cloudy - 26.6 1006.0 6.6
20/11:00pm W 7 12 - - - - 10 - - 26.7 1005.5 6.6
20/10:30pm WNW 7 10 - - - - 10 Partly cloudy Recent precip. 26.5 1005.0 6.4
20/10:00pm W 7 10 - - - - 10 Partly cloudy - 26.2 1005.0 6.4
20/09:30pm WNW 4 7 - - - - 10 Partly cloudy - 25.9 1005.4 6.4
20/09:00pm SW 11 17 - - - - 10 Partly cloudy - 26.7 1005.1 6.2
20/08:30pm WNW 11 16 - - - - 10 Partly cloudy - 28.7 1004.6 6.2
20/08:00pm WNW 9 14 - - - - 10 Partly cloudy - 28.7 1004.3 6.2
20/07:30pm WNW 10 16 - - - - 10 Cloudy Recent precip. 28.6 1004.4 6.2
20/07:00pm WSW 10 17 - - - - 8 Partly cloudy - 27.3 1004.2 6.2
20/06:30pm WNW 8 15 - - - - 10 Partly cloudy - 28.8 1003.6 5.2
20/06:00pm W 12 21 - - - - 10 Partly cloudy - 29.3 1003.4 5.2
20/05:30pm W 13 21 - - - - 10 Partly cloudy - 29.4 1003.2 5.2
20/05:00pm W 12 18 - - - - 10 Partly cloudy - 29.7 1003.0 5.2
20/04:30pm W 13 21 - - - - 10 Cloudy - 29.7 1003.2 5.2
20/04:00pm W 11 16 - - - - 10 Partly cloudy - 28.8 1003.8 5.2
20/03:43pm W 10 17 - - - - 10 Partly cloudy - 27.6 1003.8 5.2
20/03:30pm W 10 22 - - - - 5 Partly cloudy - 27.2 1004.2 5.2
20/03:27pm WNW 7 22 - - - - 5 Partly cloudy - 27.3 1004.2 5.0
20/03:00pm WSW 11 16 - - - - 10 Partly cloudy - 27.6 1004.3 3.6
20/02:42pm WNW 12 18 - - - - 10 Partly cloudy - 29.0 1004.3 3.6
20/02:30pm WNW 13 25 - - - - 4 Partly cloudy - 28.3 1004.5 3.6
20/02:24pm WNW 15 25 - - - - 4 Partly cloudy - 28.3 1004.7 3.6
20/02:22pm WNW 15 25 - - - - 10 Partly cloudy - 29.0 1004.7 2.6
20/02:00pm WNW 14 23 - - - - 10 Partly cloudy - 30.4 1004.8 2.2
20/01:30pm WNW 15 23 - - - - 10 Mostly cloudy - 30.4 1005.3 2.2
20/01:00pm WNW 13 21 - - - - 10 Partly cloudy - 29.9 1005.7 2.2
20/12:30pm WNW 11 17 - - - - 10 Partly cloudy - 28.9 1006.1 2.2
20/12:00pm WNW 10 15 - - - - 10 Partly cloudy - 27.3 1006.6 2.2
20/11:44am W 15 26 - - - - 10 Partly cloudy - 27.2 1006.8 1.8
20/11:30am WNW 11 18 - - - - 10 Partly cloudy - 29.1 1006.8 1.4
20/11:13am W 8 12 - - - - 10 Partly cloudy - 27.5 1007.0 1.4
20/11:03am WSW 11 20 - - - - 5 Partly cloudy - 26.4 1007.4 1.4
20/11:00am WSW 13 22 - - - - 7 Partly cloudy - 26.4 1007.4 0.8
20/10:30am WNW 9 13 - - - - 10 Cloudy Rain 27.8 1007.3 33.4
20/10:15am WNW 8 13 - - - - 10 Partly cloudy - 26.9 1007.5 33.4
20/10:00am WNW 11 22 - - - - 1 Partly cloudy - 25.8 1007.5 33.4
20/09:52am W 11 22 - - - - 5 Partly cloudy - 25.7 1007.8 30.0
20/09:47am WNW 9 14 - - - - 10 Partly cloudy - 26.1 1007.6 28.0
20/09:30am W 10 16 - - - - 3 Partly cloudy - 25.0 1007.6 27.4
20/09:14am SW 9 22 - - - - 2 Partly cloudy - 25.9 1007.6 21.6
20/09:00am W 12 19 - - - - 1 Partly cloudy - 25.9 1007.3 15.4
20/08:56am WSW 12 19 - - - - 2 Partly cloudy - 26.1 1007.4 11.4
20/08:51am WSW 10 19 - - - - 5 Partly cloudy - 26.3 1007.3 7.8
20/08:50am WSW 10 15 - - - - 8 Partly cloudy - 26.3 1007.2 7.0
20/08:33am W 8 13 - - - - 5 Partly cloudy - 26.6 1006.9 5.4
20/08:30am W 8 13 - - - - 6 Partly cloudy - 27.4 1006.8 4.8
20/08:24am W 9 15 - - - - 6 Partly cloudy - 27.3 1006.5 4.0
20/08:03am W 13 20 - - - - 5 Partly cloudy - 27.2 1006.5 1.6
20/08:00am W 12 20 - - - - 9 Partly cloudy - 27.7 1006.5 0.6
20/07:30am WNW 11 15 - - - - 10 Cloudy - 28.8 1005.9 0.2
20/07:00am WNW 10 15 - - - - 10 Partly cloudy - 28.8 1005.9 0.2
20/06:30am WNW 10 16 - - - - 10 Partly cloudy - 28.6 1005.5 0.2
20/06:00am WNW 10 16 - - - - 10 Partly cloudy - 28.6 1005.5 0.2
20/05:30am WNW 8 13 - - - - 10 Partly cloudy - 28.3 1005.5 0.2
20/05:00am W 10 15 - - - - 10 Partly cloudy - 28.7 1005.5 0.2
20/04:30am W 10 16 - - - - 10 Cloudy - 28.8 1005.5 0.2
20/04:00am W 11 17 - - - - 10 Partly cloudy - 28.8 1005.3 0.2
20/03:30am W 8 14 - - - - 10 - - 28.6 1005.4 0.2
20/03:00am WNW 8 15 - - - - 10 Partly cloudy - 28.7 1005.3 0.2
20/02:30am W 10 16 - - - - 10 Partly cloudy - 28.8 1005.9 0.2
20/02:00am W 10 14 - - - - 10 - - 28.9 1006.2 0.2
20/01:30am W 12 17 - - - - 10 - - 29.0 1006.3 0.2
20/01:00am W 10 16 - - - - 10 Partly cloudy - 29.2 1007.1 0.2
20/12:30am W 10 15 - - - - 10 Partly cloudy - 29.2 1007.8 0.2
20/12:00am W 10 16 - - - - 10 - - 29.3 1007.9 0.2
 
Date/Time
CST
Wind Sea
Height
m
Swell Vis
km
Cloud Weather Temp
°C
Press
MSL
hPa
Rain since
9am
mm
Dir  Spd
kts
Gust
kts
Height
m
Period
s
Dir
19/11:30pm W 11 17 - - - - 10 - - 29.2 1007.6 0.2
19/11:00pm WNW 9 13 - - - - 10 Partly cloudy - 29.1 1007.8 0.2
19/10:30pm W 11 19 - - - - 10 Cloudy - 29.4 1008.1 0.2
19/10:00pm W 13 20 - - - - 10 Partly cloudy - 29.6 1008.2 0.2
19/09:30pm W 11 19 - - - - 10 Partly cloudy - 29.6 1008.4 0.2
19/09:00pm W 11 16 - - - - 10 Partly cloudy - 29.4 1007.7 0.2
19/08:30pm W 13 21 - - - - 10 - - 29.5 1007.3 0.2
19/08:00pm W 14 20 - - - - 10 Partly cloudy - 29.5 1006.8 0.2
19/07:30pm W 12 22 - - - - 10 Cloudy - 29.8 1006.4 0.2
19/07:00pm W 11 19 - - - - 10 Partly cloudy - 30.0 1005.9 0.2
19/06:30pm W 11 16 - - - - 10 Partly cloudy - 30.4 1005.1 0.2
19/06:00pm W 13 20 - - - - 10 Partly cloudy - 31.1 1005.0 0.2
19/05:30pm W 16 25 - - - - 10 Partly cloudy - 30.9 1004.7 0.2
19/05:00pm W 16 23 - - - - 10 Partly cloudy - 31.4 1004.7 0.2
19/04:30pm W 15 23 - - - - 10 Mostly clear - 31.6 1004.9 0.2
19/04:00pm W 14 21 - - - - 10 Partly cloudy - 32.3 1005.3 0.2
19/03:30pm W 15 21 - - - - 10 Partly cloudy - 32.5 1005.7 0.2
19/03:00pm W 15 25 - - - - 10 - - 32.4 1006.0 0.2
19/02:30pm WSW 14 23 - - - - 10 Partly cloudy - 32.4 1006.5 0.2
19/02:00pm W 14 21 - - - - 10 Partly cloudy - 32.2 1006.9 0.2
19/01:30pm WNW 15 23 - - - - 10 Mostly clear - 31.8 1007.4 0.2
19/01:09pm W 16 26 - - - - 10 Partly cloudy - 31.9 1007.8 0.2
19/01:00pm W 15 20 - - - - 10 - - 32.7 1008.0 0.2
19/12:30pm W 14 23 - - - - 10 - - 32.0 1008.7 0.2
19/12:00pm W 14 21 - - - - 10 - - 31.7 1009.0 0.2
19/11:30am W 14 22 - - - - 10 Partly cloudy - 31.5 1009.3 0.0
19/11:00am W 11 17 - - - - 10 Partly cloudy - 30.4 1009.5 0.0
19/10:30am W 9 14 - - - - 10 Cloudy - 29.6 1009.8 0.4
19/10:00am W 12 17 - - - - 10 Partly cloudy - 30.6 1009.7 0.4
19/09:30am WNW 9 14 - - - - 10 Partly cloudy - 30.2 1009.6 0.4
19/09:00am W 8 12 - - - - 10 Partly cloudy - 29.1 1009.5 0.4
19/08:56am W 9 13 - - - - 10 Partly cloudy - 28.9 1009.4 0.4

Other formats

Comma delimited format used in spreadsheet applications
http://www.bom.gov.au/fwo/IDD60701/IDD60701.95101.axf

JavaScript Object Notation format (JSON) in row-major order
http://www.bom.gov.au/fwo/IDD60701/IDD60701.95101.json

Data quality

Most of these data are generated automatically and are frequently updated. Quality checks on data are not normally performed. It is possible for incorrect values to appear. Refer to information at About Latest Weather Observations and please check the disclaimer before using these data.